This is the latest recevied weather packets stored in our database for station/object K4AVM-13. If no packets are shown the sender has not sent any weather packets the latest 10 day(s).
| Time | Temp. | Humidity | Pressure | Rain* | Wind** | Luminosity | Snow |
|---|---|---|---|---|---|---|---|
| 1777641404 | 13.89° C | 56% | 1017.6 hPa | 0 mm | - | 358 W/m² | - |
| 1777641099 | 13.89° C | 55% | 1017.8 hPa | 0 mm | - | 346 W/m² | - |
| 1777640795 | 13.33° C | 59% | 1017.7 hPa | 0 mm | - | 332 W/m² | - |
| 1777640492 | 12.78° C | 59% | 1017.5 hPa | 0 mm | - | 314 W/m² | - |
| 1777640189 | 13.33° C | 59% | 1017.8 hPa | 0 mm | - | 301 W/m² | - |
| 1777639886 | 12.78° C | 62% | 1017.5 hPa | 0 mm | - | 283 W/m² | - |
| 1777639583 | 13.33° C | 61% | 1017.4 hPa | 0 mm | - | 278 W/m² | - |
| 1777639280 | 12.78° C | 63% | 1017.8 hPa | 0 mm | - | 265 W/m² | - |
| 1777638976 | 11.67° C | 65% | 1017.8 hPa | 0 mm | - | 250 W/m² | - |
| 1777638672 | 12.22° C | 65% | 1017.7 hPa | 0 mm | - | 234 W/m² | - |
| 1777638369 | 12.22° C | 66% | 1017.7 hPa | 0 mm | - | 223 W/m² | - |
| 1777638065 | 11.67° C | 67% | 1017.6 hPa | 0 mm | - | 207 W/m² | - |
| 1777637761 | 11.11° C | 69% | 1017.7 hPa | 0 mm | - | 196 W/m² | - |
| 1777637458 | 10.56° C | 72% | 1017.7 hPa | 0 mm | - | 181 W/m² | - |
| 1777637155 | 10° C | 73% | 1017.9 hPa | 0 mm | - | 168 W/m² | - |
| 1777636852 | 9.44° C | 76% | 1017.9 hPa | 0 mm | - | 155 W/m² | - |
| 1777636547 | 8.89° C | 80% | 1017.8 hPa | 0 mm | - | 93 W/m² | - |
| 1777636243 | 7.78° C | 84% | 1017.8 hPa | 0 mm | - | 52 W/m² | - |
| 1777635937 | 7.22° C | 85% | 1017.8 hPa | 0 mm | - | 32 W/m² | - |
| 1777635633 | 6.67° C | 93% | 1017.7 hPa | 0 mm | - | 31 W/m² | - |
| 1777635331 | 6.11° C | 95% | 1017.8 hPa | 0 mm | - | 31 W/m² | - |
| 1777635027 | 5.56° C | 95% | 1017.6 hPa | 0 mm | - | 29 W/m² | - |
| 1777634723 | 5.56° C | 95% | 1017.6 hPa | 0 mm | - | 28 W/m² | - |
| 1777634421 | 5.56° C | 96% | 1017.5 hPa | 0 mm | - | 28 W/m² | - |
| 1777634118 | 5° C | 96% | 1017.6 hPa | 0 mm | - | 25 W/m² | - |
* Rain latest hour (hover to see other rain measurements)
** Current wind speed in m/s (hover to see current wind gust speed)